Time;durP1;ratioP1;P1;durP2;ratioP2;P2;SDS_P1;SDS_P2;PMS_P1;PMS_P2;Temp;Humidity;BMP_temperature;BMP_pressure;BME280_temperature;BME280_humidity;BME280_pressure;Samples;Min_cycle;Max_cycle;Signal;HPM_P1;HPM_P2
2021/03/16 00:00:09;;;;;;;5.97;4.50;;;2.60;99.90;;;;;;5030393;28;20074;-79
2021/03/16 00:02:35;;;;;;;5.72;4.57;;;2.50;99.90;;;;;;5029085;28;20080;-79
2021/03/16 00:05:00;;;;;;;6.38;4.18;;;2.60;99.90;;;;;;5030599;28;20181;-79
2021/03/16 00:07:26;;;;;;;6.03;4.43;;;2.60;99.90;;;;;;5030329;28;20102;-79
2021/03/16 00:09:52;;;;;;;9.20;4.85;;;2.70;99.90;;;;;;5029431;28;20168;-80
2021/03/16 00:12:18;;;;;;;6.18;4.50;;;2.70;99.90;;;;;;5031353;28;20082;-80
2021/03/16 00:14:43;;;;;;;6.75;4.32;;;2.70;99.90;;;;;;5030238;28;20076;-79
2021/03/16 00:17:09;;;;;;;7.28;4.53;;;2.60;99.90;;;;;;5030930;28;20609;-79
2021/03/16 00:19:35;;;;;;;6.72;4.88;;;2.60;99.90;;;;;;5030737;28;20193;-80
2021/03/16 00:22:01;;;;;;;6.78;4.63;;;2.60;99.90;;;;;;5030220;28;20143;-80
2021/03/16 00:24:27;;;;;;;7.43;4.63;;;2.70;99.90;;;;;;5032012;28;20081;-79
2021/03/16 00:26:53;;;;;;;6.18;4.60;;;2.60;99.90;;;;;;5028966;28;20066;-79
2021/03/16 00:29:18;;;;;;;6.03;4.70;;;2.70;99.90;;;;;;5030460;28;20352;-80
2021/03/16 00:31:44;;;;;;;7.18;4.55;;;2.60;99.90;;;;;;5030146;28;20074;-79
2021/03/16 00:34:10;;;;;;;7.70;4.88;;;2.60;99.90;;;;;;5030248;28;20553;-80
2021/03/16 00:36:35;;;;;;;6.28;4.90;;;2.70;99.90;;;;;;5029368;28;20160;-80
2021/03/16 00:39:01;;;;;;;7.45;4.97;;;2.70;99.90;;;;;;5030595;28;20090;-80
2021/03/16 00:41:26;;;;;;;7.25;4.97;;;2.60;99.90;;;;;;5028798;28;20184;-79
2021/03/16 00:43:52;;;;;;;9.48;5.05;;;2.60;99.90;;;;;;5030173;28;20564;-79
2021/03/16 00:46:19;;;;;;;7.90;5.10;;;2.70;99.90;;;;;;5029908;28;20193;-80
2021/03/16 00:48:45;;;;;;;8.13;5.60;;;2.60;99.90;;;;;;5032007;28;20125;-78
2021/03/16 00:51:11;;;;;;;10.02;6.68;;;2.70;99.90;;;;;;5031246;28;20078;-78
2021/03/16 00:53:37;;;;;;;7.75;5.60;;;2.70;99.90;;;;;;5031668;28;20080;-79
2021/03/16 00:56:02;;;;;;;8.35;5.45;;;2.70;99.90;;;;;;5028029;28;20446;-79
2021/03/16 00:58:29;;;;;;;6.50;5.07;;;2.70;99.90;;;;;;5029534;28;20116;-79
2021/03/16 01:00:56;;;;;;;7.85;6.05;;;2.70;99.90;;;;;;5028811;28;20152;-79
2021/03/16 01:03:22;;;;;;;6.75;5.22;;;2.60;99.90;;;;;;5029600;28;20132;-79
2021/03/16 01:05:48;;;;;;;8.57;5.75;;;2.70;99.90;;;;;;5029041;28;20534;-80
2021/03/16 01:08:16;;;;;;;7.75;6.20;;;2.70;99.90;;;;;;5030046;28;20105;-80
2021/03/16 01:10:42;;;;;;;10.80;6.65;;;2.70;99.90;;;;;;5028299;28;20526;-79
2021/03/16 01:13:07;;;;;;;8.70;6.43;;;2.70;99.90;;;;;;5029769;28;20100;-79
2021/03/16 01:15:33;;;;;;;7.93;6.13;;;2.70;99.90;;;;;;5024399;28;20124;-79
2021/03/16 01:17:59;;;;;;;9.45;6.72;;;2.70;99.90;;;;;;5028357;28;20097;-79
2021/03/16 01:20:25;;;;;;;8.45;5.95;;;2.80;99.90;;;;;;5023142;28;20102;-80
2021/03/16 01:22:51;;;;;;;9.00;6.47;;;2.80;99.90;;;;;;5019047;28;20113;-79
2021/03/16 01:25:17;;;;;;;7.97;5.93;;;2.80;99.90;;;;;;5020579;28;20114;-79
2021/03/16 01:27:43;;;;;;;9.32;6.10;;;2.80;99.90;;;;;;5023470;28;20532;-79
2021/03/16 01:30:10;;;;;;;9.48;6.82;;;2.80;99.90;;;;;;5024962;28;20082;-80
2021/03/16 01:32:36;;;;;;;9.48;5.72;;;2.80;99.90;;;;;;5022494;28;20078;-80
2021/03/16 01:35:04;;;;;;;10.63;5.55;;;2.90;99.90;;;;;;5019872;28;20619;-79
2021/03/16 01:37:30;;;;;;;8.38;5.90;;;2.80;99.90;;;;;;5021137;28;20121;-80
2021/03/16 01:39:56;;;;;;;12.00;6.25;;;2.80;99.90;;;;;;5023233;28;20159;-80
2021/03/16 01:42:22;;;;;;;8.90;6.70;;;2.70;99.90;;;;;;5022129;28;20094;-80
2021/03/16 01:44:48;;;;;;;9.40;6.38;;;2.80;99.90;;;;;;5020968;28;20521;-79
2021/03/16 01:47:16;;;;;;;10.93;6.75;;;2.80;99.90;;;;;;5026168;28;20096;-79
2021/03/16 01:49:43;;;;;;;7.15;5.40;;;2.80;99.90;;;;;;5027153;28;20124;-79
2021/03/16 01:52:09;;;;;;;7.63;5.65;;;2.90;99.90;;;;;;5025780;28;20529;-79
2021/03/16 01:54:39;;;;;;;12.75;6.40;;;2.90;99.90;;;;;;5011956;28;20556;-79
2021/03/16 01:57:05;;;;;;;11.30;6.75;;;2.80;99.90;;;;;;5034609;28;20086;-79
2021/03/16 01:59:32;;;;;;;9.27;6.07;;;2.90;99.90;;;;;;5021067;28;20408;-80
2021/03/16 02:01:57;;;;;;;9.98;5.88;;;2.90;99.90;;;;;;5026110;28;20105;-79
2021/03/16 02:04:23;;;;;;;10.38;6.28;;;2.90;99.90;;;;;;5024307;28;20070;-79
2021/03/16 02:07:10;;;;;;;9.52;6.25;;;2.90;99.90;;;;;;5025367;28;20081;-79
2021/03/16 02:09:58;;;;;;;9.77;6.88;;;2.90;99.90;;;;;;5024019;28;20125;-80
2021/03/16 02:12:45;;;;;;;9.13;5.80;;;2.90;99.90;;;;;;5028796;28;20156;-80
2021/03/16 02:15:22;;;;;;;9.75;6.82;;;2.90;99.90;;;;;;5025737;28;20121;-79
2021/03/16 02:17:55;;;;;;;7.57;5.35;;;2.90;99.90;;;;;;5031747;28;20097;-80
2021/03/16 02:20:32;;;;;;;8.80;6.35;;;2.90;99.90;;;;;;5031503;28;20721;-80
2021/03/16 02:23:01;;;;;;;10.68;5.72;;;2.90;99.90;;;;;;5032551;28;20105;-80
2021/03/16 02:25:58;;;;;;;8.13;5.53;;;2.90;99.90;;;;;;5024748;28;20081;-79
2021/03/16 02:28:41;;;;;;;8.32;5.78;;;2.90;99.90;;;;;;5041306;28;20184;-79
2021/03/16 02:31:09;;;;;;;8.48;6.00;;;3.00;99.90;;;;;;5030048;28;20120;-79
2021/03/16 02:33:38;;;;;;;9.23;6.38;;;2.90;99.90;;;;;;5026484;28;20085;-79
2021/03/16 02:36:04;;;;;;;14.30;5.68;;;2.90;99.90;;;;;;5022642;28;20089;-79
2021/03/16 02:38:35;;;;;;;8.80;6.20;;;2.90;99.90;;;;;;5028298;28;20188;-79
2021/03/16 02:41:02;;;;;;;10.10;5.88;;;2.90;99.90;;;;;;5031651;28;20247;-79
2021/03/16 02:43:29;;;;;;;7.85;5.30;;;2.90;99.90;;;;;;5027409;28;20085;-79
2021/03/16 02:45:55;;;;;;;7.25;4.85;;;2.90;99.90;;;;;;5018427;28;20479;-79
2021/03/16 02:48:24;;;;;;;7.30;4.80;;;3.00;99.90;;;;;;5024947;28;20098;-78
2021/03/16 02:50:50;;;;;;;10.18;5.40;;;2.90;99.90;;;;;;5041455;28;20090;-79
2021/03/16 02:53:17;;;;;;;9.88;6.20;;;2.90;99.90;;;;;;5016587;28;20135;-80
2021/03/16 02:55:44;;;;;;;12.70;5.38;;;2.90;99.90;;;;;;5024714;28;20085;-79
2021/03/16 02:58:11;;;;;;;11.40;5.75;;;2.90;99.90;;;;;;5025116;28;20102;-80
2021/03/16 03:00:39;;;;;;;8.32;5.45;;;3.00;99.90;;;;;;5019684;28;20090;-80
2021/03/16 03:03:06;;;;;;;8.95;5.32;;;3.00;99.90;;;;;;5025905;28;20077;-78
2021/03/16 03:05:33;;;;;;;7.03;5.05;;;2.90;99.90;;;;;;5017559;28;20078;-77
2021/03/16 03:07:58;;;;;;;5.82;4.85;;;3.00;99.90;;;;;;5019547;28;20102;-77
2021/03/16 03:10:25;;;;;;;9.52;5.38;;;2.90;99.90;;;;;;5026246;28;20077;-78
2021/03/16 03:12:53;;;;;;;8.32;5.50;;;2.90;99.90;;;;;;5021932;28;20093;-77
2021/03/16 03:15:19;;;;;;;8.77;5.13;;;3.00;99.90;;;;;;5009975;28;20094;-78
2021/03/16 03:17:46;;;;;;;9.88;4.95;;;2.90;99.90;;;;;;5022711;28;20607;-78
2021/03/16 03:20:13;;;;;;;9.05;5.28;;;2.90;99.90;;;;;;5026940;28;20534;-77
2021/03/16 03:22:42;;;;;;;9.35;5.13;;;2.90;99.90;;;;;;5026787;28;20077;-78
2021/03/16 03:25:31;;;;;;;8.55;5.28;;;3.00;99.90;;;;;;5039313;28;20493;-78
2021/03/16 03:28:03;;;;;;;8.23;4.43;;;3.00;99.90;;;;;;5031669;28;20600;-77
2021/03/16 03:30:29;;;;;;;9.52;4.95;;;3.00;99.90;;;;;;5016637;28;20094;-77
2021/03/16 03:33:02;;;;;;;7.25;5.25;;;3.00;99.90;;;;;;5024581;28;20084;-78
2021/03/16 03:35:30;;;;;;;6.93;4.80;;;3.00;99.90;;;;;;5027902;28;20096;-78
2021/03/16 03:37:57;;;;;;;11.38;5.88;;;2.90;99.90;;;;;;5022005;28;20157;-78
2021/03/16 03:40:26;;;;;;;12.75;5.88;;;2.90;99.90;;;;;;5026136;28;20128;-78
2021/03/16 03:42:57;;;;;;;10.02;5.25;;;2.90;99.90;;;;;;5020875;28;20074;-77
2021/03/16 03:45:25;;;;;;;9.60;5.28;;;3.00;99.90;;;;;;5017131;28;20070;-77
2021/03/16 03:47:52;;;;;;;7.32;5.25;;;2.90;99.90;;;;;;5017265;28;20144;-78
2021/03/16 03:50:18;;;;;;;9.52;4.72;;;2.90;99.90;;;;;;5022376;28;20078;-78
2021/03/16 03:52:45;;;;;;;7.82;5.38;;;2.90;99.90;;;;;;5028540;28;20074;-78
2021/03/16 03:55:13;;;;;;;12.35;4.75;;;2.90;99.90;;;;;;5023797;28;20353;-78
2021/03/16 03:57:42;;;;;;;10.88;4.95;;;2.90;99.90;;;;;;5025097;28;20092;-78
2021/03/16 04:00:18;;;;;;;9.30;4.85;;;3.00;99.90;;;;;;5024291;28;20497;-78
2021/03/16 04:02:45;;;;;;;8.90;4.50;;;2.90;99.90;;;;;;5027154;28;20082;-78
2021/03/16 04:05:14;;;;;;;7.13;4.57;;;3.00;99.90;;;;;;5008876;28;20137;-78
2021/03/16 04:07:41;;;;;;;8.05;4.70;;;2.90;99.90;;;;;;5022662;28;20102;-78
2021/03/16 04:10:09;;;;;;;8.80;4.68;;;3.00;99.90;;;;;;5026890;28;20108;-77
2021/03/16 04:12:38;;;;;;;7.95;4.88;;;3.00;99.90;;;;;;5014105;28;20649;-78
2021/03/16 04:15:08;;;;;;;7.82;5.22;;;2.90;99.90;;;;;;5026013;28;20078;-78
2021/03/16 04:17:35;;;;;;;8.32;4.65;;;2.90;99.90;;;;;;5021437;28;20093;-78
2021/03/16 04:20:02;;;;;;;8.93;5.05;;;2.90;99.90;;;;;;5025539;28;20542;-78
2021/03/16 04:22:28;;;;;;;8.55;5.13;;;2.90;99.90;;;;;;5018225;28;20173;-78
2021/03/16 04:24:56;;;;;;;7.28;4.80;;;3.00;99.90;;;;;;5026042;28;20165;-77
2021/03/16 04:27:22;;;;;;;8.90;4.18;;;3.00;99.90;;;;;;5021328;28;20097;-78
2021/03/16 04:29:47;;;;;;;11.15;4.57;;;3.00;99.90;;;;;;5028441;28;20078;-78
2021/03/16 04:32:13;;;;;;;11.13;4.75;;;3.00;99.90;;;;;;5040242;28;20142;-77
2021/03/16 04:34:38;;;;;;;7.80;4.72;;;2.80;99.90;;;;;;5034613;28;20146;-77
2021/03/16 04:37:04;;;;;;;9.57;4.90;;;2.90;99.90;;;;;;5033694;28;20073;-77
2021/03/16 04:39:30;;;;;;;10.70;5.65;;;2.90;99.90;;;;;;5016769;28;20086;-77
2021/03/16 04:41:55;;;;;;;7.60;4.53;;;2.80;99.90;;;;;;5027248;28;20133;-78
2021/03/16 04:44:21;;;;;;;8.38;4.88;;;2.80;99.90;;;;;;5031457;28;20082;-78
2021/03/16 04:46:47;;;;;;;10.05;5.43;;;2.80;99.90;;;;;;5030506;28;20254;-77
2021/03/16 04:49:13;;;;;;;8.98;5.82;;;2.80;99.90;;;;;;5018524;28;20152;-78
2021/03/16 04:51:40;;;;;;;7.93;4.95;;;2.80;99.90;;;;;;5028221;28;20274;-78
2021/03/16 04:54:05;;;;;;;8.20;4.90;;;2.70;99.90;;;;;;5027296;28;20576;-78
2021/03/16 04:56:31;;;;;;;8.18;4.75;;;2.70;99.90;;;;;;5016690;28;20602;-78
2021/03/16 04:58:57;;;;;;;10.65;5.13;;;2.80;99.90;;;;;;5027535;28;20165;-78
2021/03/16 05:01:22;;;;;;;11.30;4.85;;;2.70;99.90;;;;;;5036069;28;20086;-78
2021/03/16 05:03:48;;;;;;;11.77;5.60;;;2.80;99.90;;;;;;5018096;28;20431;-78
2021/03/16 05:06:13;;;;;;;9.45;4.45;;;2.80;99.90;;;;;;5044199;28;20076;-78
2021/03/16 05:08:39;;;;;;;7.53;4.72;;;2.70;99.90;;;;;;5028396;28;20136;-78
2021/03/16 05:11:04;;;;;;;9.45;4.50;;;2.70;99.90;;;;;;5028216;28;20089;-78
2021/03/16 05:13:30;;;;;;;9.15;4.57;;;2.70;99.90;;;;;;5028940;28;20074;-78
2021/03/16 05:15:56;;;;;;;8.60;5.00;;;2.70;99.90;;;;;;5024055;28;20078;-78
2021/03/16 05:18:21;;;;;;;12.23;5.75;;;2.70;99.90;;;;;;5023558;28;20094;-78
2021/03/16 05:20:47;;;;;;;9.88;5.93;;;2.70;99.90;;;;;;5025543;28;20101;-77
2021/03/16 05:23:12;;;;;;;10.27;5.40;;;2.70;99.90;;;;;;5020297;28;20541;-78
2021/03/16 05:25:39;;;;;;;10.27;5.05;;;2.70;99.90;;;;;;5024845;28;20109;-77
2021/03/16 05:28:05;;;;;;;7.95;5.32;;;2.70;99.90;;;;;;5024923;28;20544;-78
2021/03/16 05:30:31;;;;;;;9.68;5.05;;;2.70;99.90;;;;;;5017916;28;20088;-78
2021/03/16 05:33:00;;;;;;;9.85;5.10;;;2.70;99.90;;;;;;5024290;28;20082;-78
2021/03/16 05:35:27;;;;;;;9.07;5.00;;;2.60;99.90;;;;;;5034662;28;20074;-78
2021/03/16 05:37:53;;;;;;;8.52;4.50;;;2.70;99.90;;;;;;5026679;28;20090;-77
2021/03/16 05:40:19;;;;;;;5.45;4.32;;;2.70;99.90;;;;;;5020333;28;20071;-77
2021/03/16 05:42:45;;;;;;;10.50;4.82;;;2.70;99.90;;;;;;5019003;28;20175;-77
2021/03/16 05:45:12;;;;;;;9.90;5.15;;;2.60;99.90;;;;;;5019604;28;20078;-78
2021/03/16 05:47:40;;;;;;;11.43;5.53;;;2.60;99.90;;;;;;5032893;28;20156;-77
2021/03/16 05:50:06;;;;;;;8.45;4.47;;;2.70;99.90;;;;;;5032977;28;20156;-78
2021/03/16 05:52:32;;;;;;;8.18;5.25;;;2.70;99.90;;;;;;5049032;28;20548;-78
2021/03/16 05:54:58;;;;;;;9.40;5.25;;;2.60;99.90;;;;;;5049376;28;20125;-78
2021/03/16 05:57:26;;;;;;;12.30;5.53;;;2.70;99.90;;;;;;5031060;28;20566;-77
2021/03/16 05:59:52;;;;;;;9.55;6.70;;;2.60;99.90;;;;;;5031923;28;20073;-77
2021/03/16 06:02:17;;;;;;;8.73;4.95;;;2.60;99.90;;;;;;5019371;28;20190;-76
2021/03/16 06:04:47;;;;;;;9.48;4.57;;;2.60;99.90;;;;;;5034276;28;20073;-76
2021/03/16 06:07:13;;;;;;;10.75;5.97;;;2.60;99.90;;;;;;5032471;28;20112;-76
2021/03/16 06:09:39;;;;;;;12.02;5.82;;;2.50;99.90;;;;;;5034128;28;20596;-76
2021/03/16 06:12:05;;;;;;;10.13;6.05;;;2.60;99.90;;;;;;5033815;28;20077;-77
2021/03/16 06:14:31;;;;;;;10.77;4.88;;;2.60;99.90;;;;;;5034539;28;20154;-76
2021/03/16 06:16:58;;;;;;;6.97;4.35;;;2.60;99.90;;;;;;5052614;28;20131;-76
2021/03/16 06:19:29;;;;;;;6.05;4.53;;;2.50;99.90;;;;;;5035441;28;20084;-77
2021/03/16 06:22:03;;;;;;;8.98;5.28;;;2.50;99.90;;;;;;5035452;28;20493;-77
2021/03/16 06:24:29;;;;;;;10.93;6.43;;;2.50;99.90;;;;;;5031843;28;20070;-75
2021/03/16 06:26:56;;;;;;;10.65;6.07;;;2.50;99.90;;;;;;5035837;28;20433;-77
2021/03/16 06:29:22;;;;;;;9.52;5.07;;;2.50;99.90;;;;;;5034289;28;20094;-76
2021/03/16 06:31:48;;;;;;;9.18;5.03;;;2.50;99.90;;;;;;5034211;28;20558;-76
2021/03/16 06:34:25;;;;;;;8.07;4.65;;;2.40;99.90;;;;;;5033086;28;20588;-76
2021/03/16 06:36:58;;;;;;;12.70;4.30;;;2.30;99.90;;;;;;5049536;28;20108;-77
2021/03/16 06:39:25;;;;;;;7.43;6.47;;;2.20;99.90;;;;;;5048572;28;20074;-76
2021/03/16 06:41:51;;;;;;;7.38;4.22;;;2.10;99.90;;;;;;5030073;28;20173;-76
2021/03/16 06:44:20;;;;;;;10.25;4.72;;;2.10;99.90;;;;;;5020625;28;20074;-76
2021/03/16 06:46:59;;;;;;;8.27;4.85;;;2.00;99.90;;;;;;5033028;28;20449;-77
2021/03/16 06:49:26;;;;;;;6.22;3.83;;;2.00;99.90;;;;;;5034172;28;20074;-76
2021/03/16 06:51:56;;;;;;;10.27;5.35;;;2.10;99.90;;;;;;5032883;28;20083;-76
2021/03/16 06:54:26;;;;;;;9.27;4.45;;;2.10;99.90;;;;;;5031441;28;20117;-76
2021/03/16 06:56:56;;;;;;;10.00;4.63;;;2.20;99.90;;;;;;5029912;28;20082;-76
2021/03/16 06:59:27;;;;;;;7.70;4.05;;;2.30;99.90;;;;;;5024416;28;21183;-76
2021/03/16 07:01:53;;;;;;;12.02;4.80;;;2.40;99.90;;;;;;5010262;28;20117;-76
2021/03/16 07:04:21;;;;;;;12.40;4.78;;;2.40;99.90;;;;;;5015663;28;20110;-75
2021/03/16 07:06:47;;;;;;;8.52;4.82;;;2.50;99.90;;;;;;5020982;28;20136;-75
2021/03/16 07:09:15;;;;;;;8.38;4.90;;;2.50;99.90;;;;;;5023924;28;20690;-75
2021/03/16 07:11:47;;;;;;;11.85;5.28;;;2.40;99.90;;;;;;5014034;28;20153;-76
2021/03/16 07:14:15;;;;;;;8.23;5.15;;;2.40;99.90;;;;;;5023589;28;20557;-77
2021/03/16 07:16:43;;;;;;;7.78;5.03;;;2.50;99.90;;;;;;5030243;28;20157;-76
2021/03/16 07:19:09;;;;;;;11.13;6.10;;;2.60;99.90;;;;;;5017090;28;20090;-77
2021/03/16 07:21:39;;;;;;;9.77;5.10;;;2.60;99.90;;;;;;5024135;28;20118;-77
2021/03/16 07:24:06;;;;;;;10.27;5.35;;;2.60;99.90;;;;;;5021481;28;20114;-77
2021/03/16 07:26:32;;;;;;;10.15;5.55;;;2.70;99.90;;;;;;5024615;28;20824;-77
2021/03/16 07:28:59;;;;;;;7.95;4.80;;;2.70;99.90;;;;;;5024758;28;20096;-77
2021/03/16 07:31:26;;;;;;;10.35;4.60;;;2.70;99.90;;;;;;5013899;28;20109;-77
2021/03/16 07:33:52;;;;;;;10.90;4.97;;;2.70;99.90;;;;;;5038270;28;20081;-77
2021/03/16 07:36:18;;;;;;;8.13;5.00;;;2.60;99.90;;;;;;5028033;28;20082;-77
2021/03/16 07:38:45;;;;;;;9.25;4.13;;;2.60;99.90;;;;;;5019457;28;20637;-75
2021/03/16 07:41:10;;;;;;;7.68;4.55;;;2.30;99.90;;;;;;5036297;28;20554;-76
2021/03/16 07:43:37;;;;;;;11.48;4.07;;;2.20;99.90;;;;;;5026602;28;20152;-77
2021/03/16 07:46:14;;;;;;;6.55;3.30;;;2.30;99.90;;;;;;5022950;28;20082;-76
2021/03/16 07:48:45;;;;;;;7.38;2.65;;;2.20;99.90;;;;;;5019960;28;20211;-76
2021/03/16 07:51:17;;;;;;;6.22;2.25;;;1.70;99.90;;;;;;5019117;28;20114;-77
2021/03/16 07:53:54;;;;;;;4.95;1.90;;;1.60;99.90;;;;;;5019602;28;20536;-77
2021/03/16 07:56:28;;;;;;;1.95;1.40;;;1.70;99.90;;;;;;5022157;28;20445;-77
2021/03/16 07:58:54;;;;;;;3.30;1.27;;;1.80;99.90;;;;;;5018791;28;20145;-76
2021/03/16 08:01:20;;;;;;;2.58;1.15;;;1.80;99.90;;;;;;5027155;28;20449;-78
2021/03/16 08:03:46;;;;;;;2.92;1.33;;;1.80;99.90;;;;;;5023809;28;20105;-77
2021/03/16 08:06:25;;;;;;;3.15;1.35;;;1.90;99.90;;;;;;5025832;28;20156;-77
2021/03/16 08:08:51;;;;;;;4.03;1.38;;;1.80;99.90;;;;;;5015247;28;20105;-77
2021/03/16 08:11:17;;;;;;;4.32;1.73;;;1.80;99.90;;;;;;5032164;28;20116;-76
2021/03/16 08:13:59;;;;;;;3.30;1.95;;;1.80;99.90;;;;;;5037870;28;20093;-76
2021/03/16 08:16:35;;;;;;;5.68;1.45;;;1.80;99.90;;;;;;5020356;28;20593;-77
2021/03/16 08:19:10;;;;;;;4.53;1.58;;;1.70;99.90;;;;;;5021072;28;20128;-77
2021/03/16 08:21:36;;;;;;;;;;;1.70;99.90;;;;;;5019201;28;20101;-78
2021/03/16 08:24:10;;;;;;;7.45;2.97;;;1.80;99.90;;;;;;5034863;28;19969;-75
2021/03/16 08:26:48;;;;;;;6.70;2.80;;;1.90;99.90;;;;;;5021687;28;20080;-75
2021/03/16 08:29:14;;;;;;;7.85;2.85;;;2.00;99.90;;;;;;5017998;28;20089;-75
2021/03/16 08:31:41;;;;;;;7.20;3.55;;;2.20;99.90;;;;;;5025500;28;20585;-76
2021/03/16 08:34:08;;;;;;;5.70;3.95;;;2.40;99.90;;;;;;5034459;28;20103;-76
2021/03/16 08:36:42;;;;;;;5.13;3.17;;;2.40;99.90;;;;;;5037260;28;20074;-76
2021/03/16 08:39:08;;;;;;;6.30;3.20;;;2.50;99.90;;;;;;5009566;28;20097;-76
2021/03/16 08:41:34;;;;;;;8.38;2.97;;;2.70;99.90;;;;;;5029179;28;20085;-76
2021/03/16 08:44:00;;;;;;;6.80;3.90;;;2.60;99.90;;;;;;5019384;28;20493;-76
2021/03/16 08:46:37;;;;;;;7.45;4.15;;;2.60;99.90;;;;;;5038073;28;20070;-76
2021/03/16 08:49:03;;;;;;;9.02;4.05;;;2.70;99.90;;;;;;5037103;28;20145;-76
2021/03/16 08:51:31;;;;;;;8.43;3.05;;;2.80;99.90;;;;;;5028533;28;20140;-76
2021/03/16 08:53:57;;;;;;;4.50;3.25;;;2.80;99.90;;;;;;5025087;28;20074;-76
2021/03/16 08:56:23;;;;;;;8.05;3.38;;;2.90;99.90;;;;;;5022902;28;20151;-76
2021/03/16 08:58:56;;;;;;;6.40;3.65;;;2.90;99.90;;;;;;5020111;28;20878;-76
2021/03/16 09:01:29;;;;;;;5.53;3.22;;;2.90;99.90;;;;;;5018018;28;20148;-76
2021/03/16 09:03:55;;;;;;;5.60;4.03;;;2.90;99.90;;;;;;5020139;28;20148;-76
2021/03/16 09:06:21;;;;;;;6.28;2.75;;;2.90;99.90;;;;;;5016515;28;20082;-77
2021/03/16 09:08:51;;;;;;;8.88;3.88;;;3.00;99.90;;;;;;5016026;28;20167;-76
2021/03/16 09:11:32;;;;;;;9.48;4.10;;;3.00;99.90;;;;;;5019823;28;20081;-77
2021/03/16 09:14:29;;;;;;;5.97;3.42;;;3.10;99.90;;;;;;5019065;28;20074;-77
2021/03/16 09:16:55;;;;;;;3.92;3.13;;;3.20;99.90;;;;;;4965539;28;20106;-77
2021/03/16 09:19:31;;;;;;;10.13;3.58;;;3.20;99.90;;;;;;5019648;28;20126;-78
2021/03/16 09:22:00;;;;;;;7.65;3.67;;;3.20;99.90;;;;;;5021447;28;20228;-78
2021/03/16 09:24:28;;;;;;;6.00;3.58;;;3.30;99.90;;;;;;5027776;28;20534;-76
2021/03/16 09:27:02;;;;;;;6.85;3.45;;;3.20;99.90;;;;;;5018125;28;20106;-76
2021/03/16 09:29:31;;;;;;;5.18;3.13;;;3.30;99.90;;;;;;5023948;28;20108;-76
2021/03/16 09:31:59;;;;;;;7.70;2.80;;;3.40;99.90;;;;;;5020458;28;20077;-77
2021/03/16 09:34:25;;;;;;;12.65;3.80;;;3.40;99.90;;;;;;5046564;28;20078;-77
2021/03/16 09:36:58;;;;;;;6.68;3.22;;;3.40;99.90;;;;;;5020291;28;20556;-76
2021/03/16 09:39:24;;;;;;;8.98;4.35;;;3.50;99.90;;;;;;5018145;28;20097;-76
2021/03/16 09:41:59;;;;;;;12.55;3.38;;;3.50;99.90;;;;;;5015647;28;20094;-76
2021/03/16 09:44:46;;;;;;;8.55;3.47;;;3.50;99.90;;;;;;5026943;28;20156;-76
2021/03/16 09:47:24;;;;;;;8.65;3.47;;;3.50;99.90;;;;;;5023639;28;20078;-77
2021/03/16 09:49:49;;;;;;;5.82;3.00;;;3.60;99.90;;;;;;5020150;28;20108;-76
2021/03/16 09:52:15;;;;;;;8.90;3.15;;;3.60;99.90;;;;;;5010625;28;20110;-77
2021/03/16 09:54:43;;;;;;;8.07;2.88;;;3.60;99.90;;;;;;5022405;28;20110;-76
2021/03/16 09:57:16;;;;;;;4.90;2.92;;;3.60;99.90;;;;;;5019937;28;20078;-76
2021/03/16 09:59:44;;;;;;;9.23;3.58;;;3.60;99.90;;;;;;5021640;28;20169;-77
2021/03/16 10:02:11;;;;;;;5.65;2.70;;;3.60;99.90;;;;;;5017365;28;20171;-77
2021/03/16 10:04:50;;;;;;;5.75;2.42;;;3.70;99.90;;;;;;5016210;28;20079;-76
2021/03/16 10:07:33;;;;;;;8.88;2.92;;;3.60;99.90;;;;;;5018840;28;20477;-76
2021/03/16 10:10:09;;;;;;;7.32;2.17;;;3.60;99.90;;;;;;5020515;28;20105;-76
2021/03/16 10:12:35;;;;;;;8.15;2.85;;;3.60;99.90;;;;;;5018019;28;20561;-76
2021/03/16 10:15:01;;;;;;;6.35;2.55;;;3.60;99.90;;;;;;5011371;28;20087;-77
2021/03/16 10:17:29;;;;;;;7.25;2.80;;;3.60;99.90;;;;;;5010286;28;20094;-77
2021/03/16 10:19:59;;;;;;;17.02;5.20;;;3.60;99.90;;;;;;5015980;28;20573;-77
2021/03/16 10:22:30;;;;;;;11.93;3.38;;;3.60;99.90;;;;;;5010706;28;20181;-76
2021/03/16 10:25:01;;;;;;;8.10;2.33;;;3.60;99.90;;;;;;5018625;28;20078;-77
2021/03/16 10:27:29;;;;;;;6.45;3.17;;;3.60;99.90;;;;;;5019264;28;20096;-77
2021/03/16 10:29:55;;;;;;;5.57;2.30;;;3.60;99.90;;;;;;5022161;28;20560;-77
2021/03/16 10:32:21;;;;;;;8.80;2.83;;;3.70;99.90;;;;;;5031347;28;20082;-77
2021/03/16 10:34:47;;;;;;;9.48;3.25;;;3.70;99.90;;;;;;5027833;28;20089;-76
2021/03/16 10:37:23;;;;;;;8.60;3.75;;;3.80;99.90;;;;;;5025205;28;20538;-77
2021/03/16 10:39:49;;;;;;;9.88;3.25;;;3.80;99.90;;;;;;5030347;28;20074;-77
2021/03/16 10:42:15;;;;;;;5.88;3.10;;;3.70;99.90;;;;;;5031037;28;20096;-79
2021/03/16 10:44:41;;;;;;;12.23;3.55;;;3.70;99.90;;;;;;5017422;28;20165;-76
2021/03/16 10:47:07;;;;;;;5.95;3.00;;;3.80;99.90;;;;;;5021786;28;20471;-76
2021/03/16 10:49:33;;;;;;;6.68;2.50;;;3.80;99.90;;;;;;5032688;28;20078;-77
2021/03/16 10:52:00;;;;;;;6.32;2.65;;;3.90;99.90;;;;;;5033256;28;20082;-78
2021/03/16 10:54:26;;;;;;;5.47;2.80;;;4.10;99.90;;;;;;5034407;28;20102;-78
2021/03/16 10:56:54;;;;;;;8.45;2.13;;;4.20;99.90;;;;;;5030517;28;20085;-78
2021/03/16 10:59:19;;;;;;;4.53;2.00;;;4.20;99.90;;;;;;5033415;28;20098;-78
2021/03/16 11:01:45;;;;;;;5.80;2.70;;;4.40;99.90;;;;;;5031016;28;20105;-78
2021/03/16 11:04:10;;;;;;;7.07;2.67;;;4.50;99.90;;;;;;5030076;28;20078;-79
2021/03/16 11:06:36;;;;;;;5.38;2.25;;;4.60;99.90;;;;;;5030896;28;20179;-78
2021/03/16 11:09:02;;;;;;;5.25;2.38;;;4.60;99.90;;;;;;5047532;28;20676;-77
2021/03/16 11:11:28;;;;;;;9.95;2.10;;;4.60;99.90;;;;;;5023440;28;20082;-78
2021/03/16 11:13:55;;;;;;;3.08;1.80;;;4.50;99.90;;;;;;5012399;28;20082;-79
2021/03/16 11:16:20;;;;;;;6.00;2.65;;;4.40;99.90;;;;;;5019194;28;20090;-78
2021/03/16 11:18:46;;;;;;;4.28;2.00;;;4.20;99.90;;;;;;5024688;28;20593;-79
2021/03/16 11:21:12;;;;;;;8.40;2.75;;;4.20;99.90;;;;;;5021361;28;20101;-78
2021/03/16 11:23:38;;;;;;;4.45;2.30;;;4.00;99.90;;;;;;5021873;28;20107;-77
2021/03/16 11:26:03;;;;;;;4.82;2.53;;;4.00;99.90;;;;;;5018841;28;20101;-77
2021/03/16 11:28:29;;;;;;;10.68;2.90;;;3.80;99.90;;;;;;5020192;28;20090;-77
2021/03/16 11:30:54;;;;;;;6.05;2.00;;;3.80;99.90;;;;;;5020593;28;20078;-77
2021/03/16 11:33:20;;;;;;;4.45;2.00;;;3.50;99.90;;;;;;5026699;28;20125;-78
2021/03/16 11:35:46;;;;;;;5.07;2.53;;;3.50;99.90;;;;;;5029738;28;20093;-78
2021/03/16 11:38:11;;;;;;;6.43;3.15;;;3.50;99.90;;;;;;5022404;28;20132;-77
2021/03/16 11:40:37;;;;;;;3.53;2.22;;;3.50;99.90;;;;;;5021453;28;20113;-77
2021/03/16 11:43:02;;;;;;;3.85;2.00;;;3.60;99.90;;;;;;5042529;28;20098;-76
2021/03/16 11:45:28;;;;;;;5.93;2.20;;;3.80;99.90;;;;;;5026991;28;20131;-77
2021/03/16 11:47:53;;;;;;;6.97;2.65;;;3.90;99.90;;;;;;5026010;28;20218;-77
2021/03/16 11:50:19;;;;;;;8.20;3.28;;;3.90;99.90;;;;;;5024074;28;20153;-77
2021/03/16 11:52:44;;;;;;;6.28;2.40;;;4.10;99.90;;;;;;5026538;28;20125;-77
2021/03/16 11:55:11;;;;;;;6.20;2.92;;;4.10;99.90;;;;;;5028586;28;20452;-77
2021/03/16 11:57:36;;;;;;;7.40;2.75;;;4.20;99.90;;;;;;5020664;28;20101;-77
2021/03/16 12:00:05;;;;;;;8.40;2.83;;;4.30;99.90;;;;;;5042357;28;20525;-79
2021/03/16 12:02:30;;;;;;;9.30;2.55;;;4.50;99.90;;;;;;5040219;28;20090;-79
2021/03/16 12:04:56;;;;;;;9.48;2.42;;;4.60;99.90;;;;;;5024410;28;20147;-79
2021/03/16 12:07:21;;;;;;;5.18;2.33;;;4.60;99.90;;;;;;5022874;28;20599;-77
2021/03/16 12:09:47;;;;;;;9.05;3.20;;;4.60;99.90;;;;;;5025191;28;20078;-78
2021/03/16 12:12:13;;;;;;;5.22;1.85;;;4.60;99.90;;;;;;5020980;28;20071;-78
2021/03/16 12:14:39;;;;;;;5.13;1.90;;;4.60;99.90;;;;;;5019117;28;20170;-78
2021/03/16 12:17:04;;;;;;;4.20;1.60;;;4.50;99.90;;;;;;5027994;28;20506;-76
2021/03/16 12:19:30;;;;;;;4.45;1.90;;;4.40;99.90;;;;;;5015110;28;20078;-77
2021/03/16 12:21:55;;;;;;;4.55;1.65;;;4.20;99.90;;;;;;5009792;28;20585;-77
2021/03/16 12:24:21;;;;;;;6.13;1.95;;;4.10;99.90;;;;;;5021493;28;20198;-77
2021/03/16 12:26:46;;;;;;;5.85;2.08;;;4.00;99.90;;;;;;5019358;28;20110;-77
2021/03/16 12:29:12;;;;;;;6.82;2.03;;;4.10;99.90;;;;;;5020824;28;20554;-76
2021/03/16 12:31:38;;;;;;;4.75;1.70;;;4.10;99.90;;;;;;5018538;28;20493;-80
2021/03/16 12:34:03;;;;;;;6.93;1.67;;;4.10;99.90;;;;;;5012078;28;20113;-78
2021/03/16 12:36:29;;;;;;;4.03;1.50;;;4.10;99.90;;;;;;5010457;28;20145;-77
2021/03/16 12:38:54;;;;;;;4.68;1.65;;;4.20;99.90;;;;;;5013315;28;20086;-76
2021/03/16 12:41:20;;;;;;;7.22;1.75;;;4.30;99.90;;;;;;5009486;28;20148;-76
2021/03/16 12:43:45;;;;;;;6.47;1.45;;;4.40;99.90;;;;;;5015610;28;20093;-76
2021/03/16 12:46:11;;;;;;;5.75;1.48;;;4.50;99.90;;;;;;5013723;28;20078;-76
2021/03/16 12:48:37;;;;;;;3.75;1.55;;;4.60;99.90;;;;;;5017009;28;20205;-76
2021/03/16 12:51:02;;;;;;;5.35;1.63;;;4.60;99.90;;;;;;5027539;28;20243;-77
2021/03/16 12:53:28;;;;;;;6.55;1.38;;;4.70;99.90;;;;;;5022709;28;20086;-77
2021/03/16 12:55:53;;;;;;;4.60;1.30;;;4.70;99.90;;;;;;5025883;28;20422;-79
2021/03/16 12:58:19;;;;;;;9.77;2.28;;;4.70;99.90;;;;;;5029006;28;20485;-79